Juniyah, Lebanon
Current Conditions -  °F | °C
As of 6:00 AM on Wednesday 22 Oct 2014 (Local Time) from OLBA Reporting Station
Few Clouds Few Clouds  
Wind Chill: 66°   Ceiling: Unl
Heat Index: 66°   Visibility: 6mi
Dew Point: 48°   Wind: 5mph
Humidity: 52%   Direction: 90°E
Pressure: 30.06"   Gusts: NA
Location:  33.97°N, 35.63°E
Report Text: OLBA 220300Z 09004KT 9999 FEW026 19/09 Q1018
Loading
Personal Weather Stations






























Interactive Weather Map
Tropical Storm Tracking
New forecast layout! Learn more

10-Day Weather Forecast

Advertisements
Track Severe Weather on mobile